首页
METAR-TAF:

METAR-TAF

机场 :

Little Rock Air Force Base

傑克遜維爾, 阿肯色州, 美国

纬度: 34-55N, 经度: 092-09W, 海拔: 95米

当前天气观测

该预报发布于53分钟前的02:56 UTC
风速6节,风向
温度 4°C
湿度 56%
气压 1037 hPa
能見度: 16.1公里
天空无云

METAR: KLRF 210256Z AUTO 01006KT 10SM CLR 04/M04 A3062 RMK AO2 SLP374 T00351038 52029

时间: 21:49 (03:49 UTC)

预报

该预报发布于4小时和49分钟前的23:00 UTC
预报有效从20日的 23点(UTC)到 22日的 05点(UTC)
风速10节,风向北转东北,有时为15节阵风
能见度10公里或以上
多云层高于5000英尺
成为
从 21日的 01点(UTC)到 21日的 02点(UTC)
风速9节,风向北转东北
能见度10公里或以上
少量云层高于4000英尺
成为
从 21日的 17点(UTC)到 21日的 18点(UTC)
风速6节,风向北转东北
能见度10公里或以上
天空无云

TAF: KLRF 202300Z 2023/2205 03010G15KT 9999 BKN050 QNH3054INS BECMG 2101/2102 02009KT 9999 FEW040 QNH3061INS BECMG 2117/2118 03006KT 9999 SKC QNH3053INS TX04/2122Z TNM02/2113Z

超过4000个机场的气象观测和天气预报(METAR&TAF报告)。

可查询的气象台以黄色和红色小点在地图上表示。

将鼠标移到小点上方,可查看气象台名称。

然后点击查看天气观测和预报。

如需切换地图:点击带黑十字的绿色按钮放大地图;点击带横线的绿色按钮缩小地图;或者点击绿色箭头查看邻近地区的地图。


METAR-TAF: